Time;durP1;ratioP1;P1;durP2;ratioP2;P2;SDS_P1;SDS_P2;PMS_P1;PMS_P2;Temp;Humidity;BMP_temperature;BMP_pressure;BME280_temperature;BME280_humidity;BME280_pressure;Samples;Min_cycle;Max_cycle;Signal;HPM_P1;HPM_P2
2023/04/03 00:01:38;;;;;;;4.03;1.57;;;;;;;;;;5049169;28;21420;-59
2023/04/03 00:04:04;;;;;;;2.47;1.00;;;;;;;;;;5050035;28;20291;-60
2023/04/03 00:06:30;;;;;;;3.23;1.67;;;;;;;;;;5050319;28;20341;-60
2023/04/03 00:08:56;;;;;;;2.97;1.10;;;;;;;;;;5050003;28;20287;-60
2023/04/03 00:11:22;;;;;;;3.43;1.27;;;;;;;;;;5048158;28;20327;-60
2023/04/03 00:13:48;;;;;;;2.57;1.10;;;;;;;;;;5050115;28;20283;-60
2023/04/03 00:16:14;;;;;;;3.00;1.20;;;;;;;;;;5049444;28;20299;-60
2023/04/03 00:18:40;;;;;;;5.43;1.73;;;;;;;;;;5050209;28;20287;-60
2023/04/03 00:21:08;;;;;;;4.63;1.60;;;;;;;;;;5049703;28;20283;-60
2023/04/03 00:23:34;;;;;;;5.13;1.53;;;;;;;;;;5049871;28;20731;-59
2023/04/03 00:26:00;;;;;;;3.97;1.63;;;;;;;;;;5049680;28;20284;-59
2023/04/03 00:28:26;;;;;;;7.37;2.33;;;;;;;;;;5049732;28;20378;-60
2023/04/03 00:30:53;;;;;;;3.87;1.60;;;;;;;;;;5049549;28;20306;-60
2023/04/03 00:33:21;;;;;;;5.97;1.30;;;;;;;;;;5049331;28;20757;-59
2023/04/03 00:35:48;;;;;;;7.27;1.60;;;;;;;;;;5049562;28;20354;-60
2023/04/03 00:38:14;;;;;;;2.67;1.30;;;;;;;;;;5049453;28;21250;-59
2023/04/03 00:40:43;;;;;;;6.07;1.50;;;;;;;;;;5049684;28;20295;-60
2023/04/03 00:43:15;;;;;;;3.27;1.40;;;;;;;;;;5049282;28;20333;-60
2023/04/03 00:45:42;;;;;;;6.00;1.40;;;;;;;;;;5049211;28;20288;-59
2023/04/03 00:48:10;;;;;;;7.83;2.07;;;;;;;;;;5048865;28;20295;-60
2023/04/03 00:50:38;;;;;;;3.30;1.40;;;;;;;;;;5049262;28;20782;-60
2023/04/03 00:53:05;;;;;;;4.77;2.10;;;;;;;;;;5049015;28;20700;-60
2023/04/03 00:55:31;;;;;;;6.40;1.70;;;;;;;;;;5049136;28;20280;-60
2023/04/03 00:57:58;;;;;;;3.80;1.43;;;;;;;;;;5048391;28;20789;-60
2023/04/03 01:00:24;;;;;;;5.20;1.27;;;;;;;;;;5049101;28;20286;-60
2023/04/03 01:02:51;;;;;;;5.10;1.87;;;;;;;;;;5049513;28;20283;-59
2023/04/03 01:05:18;;;;;;;5.77;1.43;;;;;;;;;;5049050;28;20292;-59
2023/04/03 01:07:44;;;;;;;4.87;1.43;;;;;;;;;;5048777;28;20288;-59
2023/04/03 01:10:13;;;;;;;5.70;1.83;;;;;;;;;;5048795;28;20303;-59
2023/04/03 01:12:40;;;;;;;5.87;1.50;;;;;;;;;;5049302;28;20374;-59
2023/04/03 01:15:10;;;;;;;8.37;1.90;;;;;;;;;;5048796;28;20279;-60
2023/04/03 01:17:36;;;;;;;4.97;1.60;;;;;;;;;;5049227;28;20304;-60
2023/04/03 01:20:17;;;;;;;4.00;1.40;;;;;;;;;;5048440;28;20627;-59
2023/04/03 01:23:01;;;;;;;4.53;1.60;;;;;;;;;;5049061;28;20845;-59
2023/04/03 01:25:27;;;;;;;5.07;1.90;;;;;;;;;;5048737;28;20295;-59
2023/04/03 01:27:53;;;;;;;5.27;1.77;;;;;;;;;;5048645;28;20298;-59
2023/04/03 01:30:21;;;;;;;7.67;2.23;;;;;;;;;;5048776;28;20327;-60
2023/04/03 01:32:48;;;;;;;6.13;2.03;;;;;;;;;;5048095;28;20878;-59
2023/04/03 01:35:14;;;;;;;7.23;2.13;;;;;;;;;;5048345;28;20777;-59
2023/04/03 01:37:40;;;;;;;5.20;1.70;;;;;;;;;;5048789;28;20292;-59
2023/04/03 01:40:06;;;;;;;5.73;1.80;;;;;;;;;;5048559;28;20656;-59
2023/04/03 01:42:33;;;;;;;6.27;1.63;;;;;;;;;;5049095;28;20284;-59
2023/04/03 01:44:59;;;;;;;6.67;1.70;;;;;;;;;;5048755;28;20290;-59
2023/04/03 01:47:25;;;;;;;5.27;2.13;;;;;;;;;;5048720;28;20287;-59
2023/04/03 01:49:51;;;;;;;7.20;1.90;;;;;;;;;;5048638;28;20075;-60
2023/04/03 01:52:17;;;;;;;6.77;1.70;;;;;;;;;;5047998;28;20556;-59
2023/04/03 01:54:43;;;;;;;9.53;1.93;;;;;;;;;;5048742;28;20352;-59
2023/04/03 01:57:09;;;;;;;15.13;2.13;;;;;;;;;;5049696;28;20279;-59
2023/04/03 01:59:35;;;;;;;7.60;2.03;;;;;;;;;;5049937;28;20037;-60
2023/04/03 02:02:01;;;;;;;7.77;2.17;;;;;;;;;;5049693;28;20041;-60
2023/04/03 02:04:27;;;;;;;6.57;1.83;;;;;;;;;;5049492;28;20284;-60
2023/04/03 02:06:53;;;;;;;8.20;2.07;;;;;;;;;;5049651;28;20315;-60
2023/04/03 02:09:19;;;;;;;4.10;1.90;;;;;;;;;;5049470;28;20083;-60
2023/04/03 02:11:45;;;;;;;10.87;2.30;;;;;;;;;;5053571;28;20052;-60
2023/04/03 02:14:11;;;;;;;6.60;2.33;;;;;;;;;;5053208;28;20044;-60
2023/04/03 02:16:37;;;;;;;9.97;2.00;;;;;;;;;;5053081;28;20284;-60
2023/04/03 02:19:03;;;;;;;6.23;2.30;;;;;;;;;;5052816;28;20048;-60
2023/04/03 02:21:30;;;;;;;6.33;1.93;;;;;;;;;;5053417;28;20298;-60
2023/04/03 02:23:56;;;;;;;7.77;3.53;;;;;;;;;;5053044;28;20291;-60
2023/04/03 02:26:22;;;;;;;6.73;2.37;;;;;;;;;;5052207;28;20290;-60
2023/04/03 02:28:48;;;;;;;7.23;2.13;;;;;;;;;;5051659;28;20757;-60
2023/04/03 02:31:15;;;;;;;7.17;2.40;;;;;;;;;;5052009;28;20374;-60
2023/04/03 02:33:41;;;;;;;10.23;2.10;;;;;;;;;;5051947;28;20322;-60
2023/04/03 02:36:07;;;;;;;14.63;2.83;;;;;;;;;;5051554;28;20639;-60
2023/04/03 02:38:34;;;;;;;8.23;2.70;;;;;;;;;;5051600;28;20294;-61
2023/04/03 02:41:05;;;;;;;4.73;2.43;;;;;;;;;;5051794;28;20291;-60
2023/04/03 02:43:31;;;;;;;6.73;2.53;;;;;;;;;;5051542;28;20287;-60
2023/04/03 02:45:57;;;;;;;4.67;2.17;;;;;;;;;;5051928;28;20316;-60
2023/04/03 02:48:25;;;;;;;9.23;3.33;;;;;;;;;;5051508;28;20292;-60
2023/04/03 02:50:51;;;;;;;8.27;2.97;;;;;;;;;;5050151;28;20378;-60
2023/04/03 02:53:17;;;;;;;9.47;2.50;;;;;;;;;;5051438;28;20291;-60
2023/04/03 02:55:43;;;;;;;7.53;3.07;;;;;;;;;;5051727;28;20294;-60
2023/04/03 02:58:09;;;;;;;7.70;2.23;;;;;;;;;;5051145;28;21011;-60
2023/04/03 03:00:35;;;;;;;9.20;2.50;;;;;;;;;;5051498;28;20110;-60
2023/04/03 03:03:01;;;;;;;11.20;2.80;;;;;;;;;;5051301;28;20303;-60
2023/04/03 03:05:28;;;;;;;9.77;2.70;;;;;;;;;;5051416;28;20345;-60
2023/04/03 03:07:54;;;;;;;6.87;2.20;;;;;;;;;;5051231;28;20299;-60
2023/04/03 03:10:20;;;;;;;10.07;3.77;;;;;;;;;;5051180;28;20287;-60
2023/04/03 03:12:46;;;;;;;9.90;3.33;;;;;;;;;;5050689;28;20685;-60
2023/04/03 03:15:12;;;;;;;9.83;3.10;;;;;;;;;;5051311;28;20789;-60
2023/04/03 03:17:38;;;;;;;9.43;3.00;;;;;;;;;;5051264;28;20287;-60
2023/04/03 03:20:05;;;;;;;7.23;2.67;;;;;;;;;;5050874;28;20288;-60
2023/04/03 03:22:31;;;;;;;6.73;2.93;;;;;;;;;;5050571;28;20088;-60
2023/04/03 03:24:57;;;;;;;7.83;3.00;;;;;;;;;;5051319;28;20295;-60
2023/04/03 03:27:24;;;;;;;5.73;2.40;;;;;;;;;;5050860;28;20295;-60
2023/04/03 03:29:50;;;;;;;14.33;4.03;;;;;;;;;;5050792;28;20662;-60
2023/04/03 03:32:16;;;;;;;6.53;2.57;;;;;;;;;;5050888;28;20788;-60
2023/04/03 03:34:42;;;;;;;7.67;2.93;;;;;;;;;;5050960;28;20374;-60
2023/04/03 03:37:08;;;;;;;10.80;2.23;;;;;;;;;;5051052;28;20127;-60
2023/04/03 03:39:34;;;;;;;8.00;2.77;;;;;;;;;;5050645;28;20139;-60
2023/04/03 03:42:01;;;;;;;7.87;2.90;;;;;;;;;;5050900;28;20298;-60
2023/04/03 03:44:28;;;;;;;10.57;3.23;;;;;;;;;;5048726;28;20288;-60
2023/04/03 03:46:55;;;;;;;8.83;2.70;;;;;;;;;;5050537;28;20337;-60
2023/04/03 03:49:21;;;;;;;10.10;3.40;;;;;;;;;;5050586;28;20292;-61
2023/04/03 03:51:47;;;;;;;8.70;3.10;;;;;;;;;;5050487;28;20337;-60
2023/04/03 03:54:13;;;;;;;7.70;2.47;;;;;;;;;;5050277;28;20291;-60
2023/04/03 03:56:39;;;;;;;8.27;2.67;;;;;;;;;;5050189;28;20091;-60
2023/04/03 03:59:06;;;;;;;10.23;3.40;;;;;;;;;;5049073;28;20290;-60
2023/04/03 04:01:32;;;;;;;8.30;4.03;;;;;;;;;;5050416;28;20287;-61
2023/04/03 04:03:58;;;;;;;12.93;3.00;;;;;;;;;;5050157;28;20292;-60
2023/04/03 04:06:24;;;;;;;7.87;3.00;;;;;;;;;;5050429;28;20291;-60
2023/04/03 04:08:50;;;;;;;9.60;2.90;;;;;;;;;;5049816;28;20345;-61
2023/04/03 04:11:16;;;;;;;8.63;3.30;;;;;;;;;;5049512;28;20306;-60
2023/04/03 04:13:42;;;;;;;12.23;3.03;;;;;;;;;;5050143;28;20334;-61
2023/04/03 04:16:09;;;;;;;12.23;3.00;;;;;;;;;;5050111;28;20287;-60
2023/04/03 04:18:35;;;;;;;7.50;2.83;;;;;;;;;;5049859;28;20777;-60
2023/04/03 04:21:01;;;;;;;7.83;3.17;;;;;;;;;;5049861;28;20892;-61
2023/04/03 04:23:27;;;;;;;8.93;3.40;;;;;;;;;;5049618;28;20283;-60
2023/04/03 04:25:53;;;;;;;13.00;4.60;;;;;;;;;;5049300;28;20033;-60
2023/04/03 04:28:19;;;;;;;9.30;3.10;;;;;;;;;;5049668;28;20295;-61
2023/04/03 04:30:45;;;;;;;7.10;3.20;;;;;;;;;;5049462;28;20515;-60
2023/04/03 04:33:12;;;;;;;8.57;3.73;;;;;;;;;;5048990;28;20275;-60
2023/04/03 04:35:38;;;;;;;12.47;4.00;;;;;;;;;;5049775;28;20385;-61
2023/04/03 04:38:04;;;;;;;16.13;3.60;;;;;;;;;;5049523;28;20718;-60
2023/04/03 04:40:30;;;;;;;16.13;3.73;;;;;;;;;;5049431;28;20049;-60
2023/04/03 04:42:56;;;;;;;8.70;3.43;;;;;;;;;;5049839;28;20291;-60
2023/04/03 04:45:22;;;;;;;6.30;3.27;;;;;;;;;;5049598;28;20051;-60
2023/04/03 04:47:51;;;;;;;9.10;3.67;;;;;;;;;;5049467;28;20287;-60
2023/04/03 04:50:17;;;;;;;11.73;4.33;;;;;;;;;;5049164;28;20283;-60
2023/04/03 04:52:43;;;;;;;6.67;3.10;;;;;;;;;;5049468;28;20397;-60
2023/04/03 04:55:09;;;;;;;7.20;3.20;;;;;;;;;;5049002;28;20417;-60
2023/04/03 04:57:36;;;;;;;13.43;3.90;;;;;;;;;;5049593;28;20291;-60
2023/04/03 05:00:02;;;;;;;8.97;3.93;;;;;;;;;;5049042;28;20642;-60
2023/04/03 05:02:28;;;;;;;13.90;3.43;;;;;;;;;;5049314;28;21012;-60
2023/04/03 05:04:54;;;;;;;12.20;3.83;;;;;;;;;;5049092;28;20279;-60
2023/04/03 05:07:20;;;;;;;8.30;3.23;;;;;;;;;;5048982;28;20276;-60
2023/04/03 05:09:46;;;;;;;7.80;3.10;;;;;;;;;;5049397;28;20403;-60
2023/04/03 05:12:12;;;;;;;8.70;3.37;;;;;;;;;;5048974;28;20060;-60
2023/04/03 05:14:39;;;;;;;10.30;3.27;;;;;;;;;;5048603;28;20284;-60
2023/04/03 05:17:05;;;;;;;13.97;3.57;;;;;;;;;;5048793;28;20288;-60
2023/04/03 05:19:31;;;;;;;8.97;3.00;;;;;;;;;;5048862;28;20371;-60
2023/04/03 05:21:57;;;;;;;12.33;3.60;;;;;;;;;;5048631;28;20378;-60
2023/04/03 05:24:23;;;;;;;7.93;2.87;;;;;;;;;;5048926;28;20491;-60
2023/04/03 05:26:49;;;;;;;9.53;3.60;;;;;;;;;;5048410;28;20525;-61
2023/04/03 05:29:15;;;;;;;5.90;3.10;;;;;;;;;;5048282;28;20383;-61
2023/04/03 05:31:41;;;;;;;14.67;4.17;;;;;;;;;;5048577;28;20410;-60
2023/04/03 05:34:07;;;;;;;7.43;2.80;;;;;;;;;;5048574;28;20710;-60
2023/04/03 05:36:33;;;;;;;9.20;3.13;;;;;;;;;;5048090;28;20049;-62
2023/04/03 05:38:59;;;;;;;10.93;2.80;;;;;;;;;;5045446;28;20379;-61
2023/04/03 05:41:25;;;;;;;9.67;2.77;;;;;;;;;;5039033;28;20347;-62
2023/04/03 05:43:51;;;;;;;14.10;3.23;;;;;;;;;;5038248;28;20651;-61
2023/04/03 05:46:19;;;;;;;8.80;3.77;;;;;;;;;;5040024;28;20279;-60
2023/04/03 05:48:45;;;;;;;10.67;3.30;;;;;;;;;;5042713;28;20287;-61
2023/04/03 05:51:16;;;;;;;11.93;3.80;;;;;;;;;;5042244;28;20300;-62
2023/04/03 05:53:43;;;;;;;6.73;3.03;;;;;;;;;;5040993;28;20296;-61
2023/04/03 05:56:10;;;;;;;8.67;3.50;;;;;;;;;;5042048;28;20283;-61
2023/04/03 05:58:36;;;;;;;10.77;2.90;;;;;;;;;;5042695;28;20285;-62
2023/04/03 06:01:02;;;;;;;10.07;4.23;;;;;;;;;;5042813;28;20283;-61
2023/04/03 06:03:28;;;;;;;12.63;3.13;;;;;;;;;;5040129;28;20613;-61
2023/04/03 06:05:54;;;;;;;11.13;3.97;;;;;;;;;;5042458;28;20048;-60
2023/04/03 06:08:20;;;;;;;10.77;3.20;;;;;;;;;;5049424;28;20060;-60
2023/04/03 06:10:46;;;;;;;8.50;3.53;;;;;;;;;;5052216;28;20363;-60
2023/04/03 06:13:12;;;;;;;9.57;4.43;;;;;;;;;;5051765;28;20291;-60
2023/04/03 06:15:39;;;;;;;12.47;4.73;;;;;;;;;;5052472;28;20337;-60
2023/04/03 06:18:06;;;;;;;12.57;4.77;;;;;;;;;;5050965;28;20635;-60
2023/04/03 06:20:32;;;;;;;6.93;3.17;;;;;;;;;;5051561;28;20287;-60
2023/04/03 06:22:58;;;;;;;10.63;3.93;;;;;;;;;;5051925;28;20785;-60
2023/04/03 06:25:25;;;;;;;8.07;3.43;;;;;;;;;;5051782;28;20330;-60
2023/04/03 06:27:51;;;;;;;11.53;3.40;;;;;;;;;;5051368;28;20295;-60
2023/04/03 06:30:17;;;;;;;17.03;5.13;;;;;;;;;;5051288;28;20283;-60
2023/04/03 06:32:43;;;;;;;10.03;3.10;;;;;;;;;;5051520;28;20338;-60
2023/04/03 06:35:09;;;;;;;8.77;3.47;;;;;;;;;;5051627;28;20279;-60
2023/04/03 06:37:35;;;;;;;8.30;3.30;;;;;;;;;;5051361;28;20041;-61
2023/04/03 06:40:02;;;;;;;9.40;2.83;;;;;;;;;;5051886;28;20318;-60
2023/04/03 06:42:28;;;;;;;8.47;3.37;;;;;;;;;;5048812;28;20297;-60
2023/04/03 06:44:55;;;;;;;16.70;4.50;;;;;;;;;;5042823;28;20330;-61
2023/04/03 06:47:21;;;;;;;14.63;3.40;;;;;;;;;;5040829;28;20280;-60
2023/04/03 06:49:47;;;;;;;10.73;2.90;;;;;;;;;;5039764;28;20815;-60
2023/04/03 06:52:13;;;;;;;7.43;3.70;;;;;;;;;;5041409;28;20076;-61
2023/04/03 06:54:40;;;;;;;7.83;2.77;;;;;;;;;;5041126;28;20307;-61
2023/04/03 06:57:06;;;;;;;9.60;2.60;;;;;;;;;;5039027;28;20291;-61
2023/04/03 06:59:32;;;;;;;9.03;2.67;;;;;;;;;;5031421;28;20280;-61
2023/04/03 07:01:59;;;;;;;7.60;2.87;;;;;;;;;;5030754;28;20349;-61
2023/04/03 07:04:26;;;;;;;8.30;3.17;;;;;;;;;;5031553;28;20283;-61
2023/04/03 07:06:52;;;;;;;9.07;2.97;;;;;;;;;;5031116;28;20371;-61
2023/04/03 07:09:18;;;;;;;10.00;2.90;;;;;;;;;;5031092;28;20346;-61
2023/04/03 07:11:45;;;;;;;9.37;3.50;;;;;;;;;;5031150;28;20334;-61
2023/04/03 07:14:11;;;;;;;11.40;2.07;;;;;;;;;;5036425;28;20797;-59
2023/04/03 07:16:37;;;;;;;14.43;2.57;;;;;;;;;;5050528;28;20315;-60
2023/04/03 07:19:03;;;;;;;8.80;2.13;;;;;;;;;;5050443;28;20060;-60
2023/04/03 07:21:29;;;;;;;13.10;3.63;;;;;;;;;;5050759;28;20067;-60
2023/04/03 07:23:55;;;;;;;6.43;2.03;;;;;;;;;;5050806;28;20429;-60
2023/04/03 07:26:22;;;;;;;10.37;2.43;;;;;;;;;;5050954;28;20363;-60
2023/04/03 07:28:49;;;;;;;7.10;2.33;;;;;;;;;;5050209;28;20287;-61
2023/04/03 07:31:16;;;;;;;6.93;2.10;;;;;;;;;;5050551;28;20356;-60
2023/04/03 07:33:43;;;;;;;7.07;2.00;;;;;;;;;;5050481;28;20306;-60
2023/04/03 07:36:09;;;;;;;6.67;2.37;;;;;;;;;;5050274;28;20430;-60
2023/04/03 07:38:36;;;;;;;9.90;2.00;;;;;;;;;;5050868;28;20291;-60
2023/04/03 07:41:03;;;;;;;10.30;2.77;;;;;;;;;;5050249;28;20284;-60
2023/04/03 07:43:29;;;;;;;6.03;2.13;;;;;;;;;;5049273;28;20406;-60
2023/04/03 07:45:56;;;;;;;3.23;1.57;;;;;;;;;;5048232;28;20061;-60
2023/04/03 07:48:23;;;;;;;11.53;1.43;;;;;;;;;;5040563;28;20120;-60
2023/04/03 07:50:49;;;;;;;6.87;1.93;;;;;;;;;;5030241;28;20781;-60
2023/04/03 07:53:15;;;;;;;4.40;1.93;;;;;;;;;;5030434;28;20287;-59
2023/04/03 07:55:44;;;;;;;4.37;1.83;;;;;;;;;;5030309;28;20393;-59
2023/04/03 07:58:11;;;;;;;5.23;1.57;;;;;;;;;;5029927;28;20824;-60
2023/04/03 08:00:37;;;;;;;4.93;1.30;;;;;;;;;;5030407;28;20543;-60
2023/04/03 08:03:04;;;;;;;4.70;1.53;;;;;;;;;;5029933;28;20132;-60
2023/04/03 08:05:30;;;;;;;4.97;1.70;;;;;;;;;;5030307;28;20083;-60
2023/04/03 08:07:57;;;;;;;6.13;1.87;;;;;;;;;;5029768;28;20046;-60
2023/04/03 08:10:23;;;;;;;2.90;1.00;;;;;;;;;;5029981;28;20088;-60
2023/04/03 08:12:49;;;;;;;3.83;1.17;;;;;;;;;;5029969;28;20300;-60
2023/04/03 08:15:16;;;;;;;7.03;1.73;;;;;;;;;;5029575;28;20049;-60
2023/04/03 08:17:42;;;;;;;3.70;1.10;;;;;;;;;;5029678;28;20042;-60
2023/04/03 08:20:09;;;;;;;4.87;1.70;;;;;;;;;;5029709;28;20291;-60
2023/04/03 08:22:35;;;;;;;5.87;1.23;;;;;;;;;;5029997;28;20049;-61
2023/04/03 08:25:01;;;;;;;3.23;1.10;;;;;;;;;;5029766;28;20084;-59
2023/04/03 08:27:28;;;;;;;9.37;1.67;;;;;;;;;;5029439;28;20094;-60
2023/04/03 08:29:55;;;;;;;3.87;1.43;;;;;;;;;;5029761;28;20829;-60
2023/04/03 08:32:21;;;;;;;4.30;1.30;;;;;;;;;;5029635;28;20160;-60
2023/04/03 08:34:47;;;;;;;4.60;2.00;;;;;;;;;;5029987;28;20069;-60
2023/04/03 08:37:13;;;;;;;2.93;1.20;;;;;;;;;;5029170;28;20557;-60
2023/04/03 08:39:39;;;;;;;6.33;1.17;;;;;;;;;;5029518;28;20141;-60
2023/04/03 08:42:08;;;;;;;7.00;1.30;;;;;;;;;;5029744;28;20483;-61
2023/04/03 08:44:46;;;;;;;3.50;1.20;;;;;;;;;;5029050;28;20056;-60
2023/04/03 08:47:16;;;;;;;7.27;1.83;;;;;;;;;;5029315;28;20077;-61
2023/04/03 08:49:48;;;;;;;2.43;0.87;;;;;;;;;;5029355;28;20057;-61
2023/04/03 08:52:17;;;;;;;2.77;1.00;;;;;;;;;;5028675;28;20160;-61
2023/04/03 08:54:57;;;;;;;3.17;0.93;;;;;;;;;;5029159;28;20284;-61
2023/04/03 08:57:30;;;;;;;3.80;1.27;;;;;;;;;;5047202;28;20102;-61
2023/04/03 08:59:57;;;;;;;2.30;0.70;;;;;;;;;;5045709;28;20624;-61
2023/04/03 09:02:32;;;;;;;3.17;1.00;;;;;;;;;;5046250;28;20044;-61
2023/04/03 09:04:58;;;;;;;2.63;0.87;;;;;;;;;;5046226;28;20045;-61
2023/04/03 09:07:31;;;;;;;2.63;0.63;;;;;;;;;;5046383;28;20052;-61
2023/04/03 09:10:01;;;;;;;2.43;0.97;;;;;;;;;;5046277;28;20692;-61
2023/04/03 09:12:39;;;;;;;4.43;1.40;;;;;;;;;;5047242;28;20049;-61
2023/04/03 09:15:11;;;;;;;3.33;0.90;;;;;;;;;;5048666;28;20554;-61
2023/04/03 09:17:56;;;;;;;3.00;0.90;;;;;;;;;;5048737;28;20048;-61
2023/04/03 09:20:29;;;;;;;2.73;0.90;;;;;;;;;;5048285;28;20415;-61
2023/04/03 09:22:55;;;;;;;2.30;0.75;;;;;;;;;;5048833;28;20063;-63
2023/04/03 09:25:25;;;;;;;3.90;1.10;;;;;;;;;;5048717;28;20048;-61
2023/04/03 09:27:51;;;;;;;2.57;0.90;;;;;;;;;;5048337;28;20044;-61
2023/04/03 09:30:18;;;;;;;2.17;0.90;;;;;;;;;;5048653;28;20125;-61
2023/04/03 09:32:46;;;;;;;3.23;0.90;;;;;;;;;;5048229;28;20056;-61
2023/04/03 09:35:18;;;;;;;1.87;0.67;;;;;;;;;;5048626;28;20056;-61
2023/04/03 09:37:48;;;;;;;3.80;0.80;;;;;;;;;;5048508;28;20049;-61
2023/04/03 09:40:30;;;;;;;2.10;0.80;;;;;;;;;;5048811;28;20085;-61
2023/04/03 09:42:59;;;;;;;3.50;0.80;;;;;;;;;;5048372;28;20550;-61
2023/04/03 09:45:36;;;;;;;1.63;0.60;;;;;;;;;;5048490;28;20049;-61
2023/04/03 09:48:14;;;;;;;2.13;0.53;;;;;;;;;;5048566;28;20048;-61
2023/04/03 09:50:56;;;;;;;3.43;0.80;;;;;;;;;;5048270;28;20048;-61
2023/04/03 09:53:35;;;;;;;2.87;0.73;;;;;;;;;;5048490;28;20051;-61
2023/04/03 09:56:03;;;;;;;2.57;0.60;;;;;;;;;;5048144;28;20045;-61
2023/04/03 09:58:35;;;;;;;2.47;0.60;;;;;;;;;;5048309;28;20088;-61
2023/04/03 10:01:02;;;;;;;4.03;0.93;;;;;;;;;;5047895;28;20136;-61
2023/04/03 10:03:32;;;;;;;1.33;0.53;;;;;;;;;;5048472;28;20127;-61
2023/04/03 10:05:59;;;;;;;2.67;0.80;;;;;;;;;;5048319;28;20053;-61
2023/04/03 10:08:27;;;;;;;2.43;0.70;;;;;;;;;;5048299;28;20081;-61
2023/04/03 10:11:12;;;;;;;3.07;0.83;;;;;;;;;;5047766;28;20049;-61
2023/04/03 10:13:59;;;;;;;1.67;0.70;;;;;;;;;;5048189;28;20049;-61
2023/04/03 10:16:33;;;;;;;1.87;0.73;;;;;;;;;;5047893;28;20129;-61
2023/04/03 10:19:18;;;;;;;2.10;0.43;;;;;;;;;;5048248;28;20127;-62
2023/04/03 10:21:51;;;;;;;3.30;0.90;;;;;;;;;;5047892;28;20052;-61
2023/04/03 10:24:36;;;;;;;2.17;0.65;;;;;;;;;;5047906;28;20045;-61
2023/04/03 10:27:06;;;;;;;2.60;0.70;;;;;;;;;;5046661;28;20404;-62
2023/04/03 10:29:44;;;;;;;2.50;0.73;;;;;;;;;;5048065;28;20111;-61
2023/04/03 10:32:11;;;;;;;2.37;0.70;;;;;;;;;;5050970;28;20072;-62
2023/04/03 10:34:43;;;;;;;1.77;0.60;;;;;;;;;;5051982;28;20128;-61
2023/04/03 10:37:19;;;;;;;1.63;0.57;;;;;;;;;;5051293;28;20102;-61
2023/04/03 10:39:51;;;;;;;4.53;0.73;;;;;;;;;;5051453;28;20566;-62
2023/04/03 10:42:17;;;;;;;2.47;0.50;;;;;;;;;;5050377;28;20045;-61
2023/04/03 10:44:49;;;;;;;1.93;0.60;;;;;;;;;;5051777;28;20041;-61
2023/04/03 10:47:34;;;;;;;2.70;0.90;;;;;;;;;;5047243;28;20406;-62
2023/04/03 10:50:02;;;;;;;4.73;1.00;;;;;;;;;;5031679;28;20423;-61
2023/04/03 10:52:40;;;;;;;1.47;0.50;;;;;;;;;;5031728;28;20091;-61
2023/04/03 10:55:44;;;;;;;2.30;0.80;;;;;;;;;;5031544;28;20046;-61
2023/04/03 10:58:19;;;;;;;2.97;0.73;;;;;;;;;;5028777;28;20132;-61
2023/04/03 11:00:48;;;;;;;3.10;0.90;;;;;;;;;;5028982;28;20099;-61
2023/04/03 11:03:17;;;;;;;4.00;0.90;;;;;;;;;;5029776;28;20053;-61
2023/04/03 11:05:50;;;;;;;3.27;1.10;;;;;;;;;;5031456;28;20407;-62
2023/04/03 11:08:16;;;;;;;2.85;0.75;;;;;;;;;;5031260;28;20120;-61
2023/04/03 11:10:43;;;;;;;4.97;0.87;;;;;;;;;;5031092;28;20507;-61
2023/04/03 11:13:17;;;;;;;3.30;0.73;;;;;;;;;;5046331;28;20053;-61
2023/04/03 11:15:46;;;;;;;3.10;1.00;;;;;;;;;;5031141;28;20492;-62
2023/04/03 11:18:20;;;;;;;2.53;0.80;;;;;;;;;;5030888;28;20049;-61
2023/04/03 11:20:54;;;;;;;2.57;1.17;;;;;;;;;;5030904;28;20081;-62
2023/04/03 11:23:22;;;;;;;3.00;0.90;;;;;;;;;;5030919;28;20136;-62
2023/04/03 11:25:51;;;;;;;1.83;0.70;;;;;;;;;;5031140;28;20045;-62
2023/04/03 11:28:17;;;;;;;1.83;0.67;;;;;;;;;;5030853;28;20906;-61
2023/04/03 11:30:53;;;;;;;1.80;0.70;;;;;;;;;;5030656;28;20038;-62
2023/04/03 11:33:20;;;;;;;3.07;0.73;;;;;;;;;;5030437;28;20050;-62
2023/04/03 11:35:48;;;;;;;3.57;1.30;;;;;;;;;;5030853;28;20045;-61
2023/04/03 11:38:39;;;;;;;1.40;0.60;;;;;;;;;;5030980;28;20428;-62
2023/04/03 11:41:06;;;;;;;3.33;1.00;;;;;;;;;;5030234;28;20100;-61
2023/04/03 11:43:34;;;;;;;2.53;0.60;;;;;;;;;;5030022;28;20042;-61
2023/04/03 11:46:02;;;;;;;3.40;1.07;;;;;;;;;;5030499;28;20049;-61
2023/04/03 11:48:28;;;;;;;1.90;0.67;;;;;;;;;;5043483;28;20041;-62
2023/04/03 11:50:55;;;;;;;2.50;1.10;;;;;;;;;;5050522;28;20040;-62
2023/04/03 11:53:40;;;;;;;2.60;1.03;;;;;;;;;;5049756;28;20053;-61
2023/04/03 11:56:33;;;;;;;3.70;1.07;;;;;;;;;;5049815;28;20655;-62
2023/04/03 11:59:05;;;;;;;3.53;0.80;;;;;;;;;;5049708;28;20057;-61
2023/04/03 12:01:45;;;;;;;5.97;0.80;;;;;;;;;;5050081;28;20053;-62
2023/04/03 12:04:15;;;;;;;4.83;1.03;;;;;;;;;;5050200;28;20041;-61
2023/04/03 12:06:41;;;;;;;3.03;1.00;;;;;;;;;;5050247;28;20049;-62
2023/04/03 12:09:27;;;;;;;2.10;1.00;;;;;;;;;;5050061;28;20045;-61
2023/04/03 12:11:53;;;;;;;3.97;0.90;;;;;;;;;;5050251;28;20088;-62
2023/04/03 12:14:22;;;;;;;3.83;0.93;;;;;;;;;;5049784;28;20045;-61
2023/04/03 12:16:49;;;;;;;2.60;1.10;;;;;;;;;;5049694;28;20044;-61
2023/04/03 12:19:15;;;;;;;2.63;0.83;;;;;;;;;;5049709;28;20086;-62
2023/04/03 12:21:45;;;;;;;2.53;0.87;;;;;;;;;;5050216;28;20051;-59
2023/04/03 12:24:17;;;;;;;3.30;1.10;;;;;;;;;;5049800;28;20060;-60
2023/04/03 12:26:51;;;;;;;4.43;1.37;;;;;;;;;;5049849;28;20098;-60
2023/04/03 12:29:18;;;;;;;1.87;0.77;;;;;;;;;;5049238;28;20061;-60
2023/04/03 12:31:54;;;;;;;2.97;1.03;;;;;;;;;;5049681;28;20114;-60
2023/04/03 12:34:21;;;;;;;2.17;0.63;;;;;;;;;;5049696;28;20139;-59
2023/04/03 12:36:59;;;;;;;4.03;1.03;;;;;;;;;;5049881;28;20053;-60
2023/04/03 12:39:25;;;;;;;3.43;0.80;;;;;;;;;;5049857;28;20397;-60
2023/04/03 12:41:51;;;;;;;2.50;1.10;;;;;;;;;;5049080;28;20624;-60
2023/04/03 12:44:28;;;;;;;4.53;1.10;;;;;;;;;;5049361;28;20056;-60
2023/04/03 12:46:54;;;;;;;3.53;1.20;;;;;;;;;;5049333;28;20055;-59
2023/04/03 12:49:29;;;;;;;2.00;0.77;;;;;;;;;;5042436;28;20067;-61
2023/04/03 12:51:56;;;;;;;2.73;1.00;;;;;;;;;;5048747;28;20111;-60
2023/04/03 12:54:40;;;;;;;3.30;1.13;;;;;;;;;;5048423;28;20421;-61
2023/04/03 12:57:17;;;;;;;2.23;1.07;;;;;;;;;;5049175;28;20049;-61
2023/04/03 12:59:45;;;;;;;3.50;0.97;;;;;;;;;;5048264;28;20411;-61
2023/04/03 13:02:23;;;;;;;2.43;1.00;;;;;;;;;;5049130;28;20052;-61
2023/04/03 13:04:49;;;;;;;1.70;0.80;;;;;;;;;;5049190;28;20132;-61
2023/04/03 13:07:25;;;;;;;3.80;1.10;;;;;;;;;;5044715;28;20076;-61
2023/04/03 13:10:01;;;;;;;2.53;1.10;;;;;;;;;;5048588;28;20057;-61
2023/04/03 13:12:27;;;;;;;4.67;1.43;;;;;;;;;;5045917;28;20059;-61
2023/04/03 13:14:55;;;;;;;3.50;1.00;;;;;;;;;;5038688;28;20522;-61
2023/04/03 13:17:22;;;;;;;3.03;1.10;;;;;;;;;;5037736;28;20045;-61
2023/04/03 13:19:48;;;;;;;3.20;1.10;;;;;;;;;;5036142;28;20048;-61
2023/04/03 13:22:33;;;;;;;3.03;1.07;;;;;;;;;;5038320;28;20037;-60
2023/04/03 13:25:02;;;;;;;2.90;1.00;;;;;;;;;;5040920;28;20102;-61
2023/04/03 13:27:30;;;;;;;3.47;1.20;;;;;;;;;;5040501;28;20046;-60
2023/04/03 13:29:59;;;;;;;5.23;1.57;;;;;;;;;;5033179;28;20079;-61
2023/04/03 13:32:27;;;;;;;1.90;0.80;;;;;;;;;;5042032;28;20454;-61
2023/04/03 13:34:53;;;;;;;3.47;1.07;;;;;;;;;;5040382;28;20040;-61
2023/04/03 13:37:25;;;;;;;2.70;1.17;;;;;;;;;;5042106;28;20044;-61
2023/04/03 13:39:59;;;;;;;2.90;1.05;;;;;;;;;;5033708;28;20050;-61
2023/04/03 13:42:29;;;;;;;5.50;1.40;;;;;;;;;;5035265;28;20079;-61
2023/04/03 13:45:13;;;;;;;3.13;1.00;;;;;;;;;;5037431;28;20041;-61
2023/04/03 13:47:41;;;;;;;3.50;1.03;;;;;;;;;;5043139;28;20045;-61
2023/04/03 13:50:15;;;;;;;2.77;1.00;;;;;;;;;;5040280;28;20033;-61
2023/04/03 13:52:49;;;;;;;3.00;1.00;;;;;;;;;;5042372;28;20049;-61
2023/04/03 13:55:35;;;;;;;2.97;1.23;;;;;;;;;;5041742;28;20581;-61
2023/04/03 13:58:07;;;;;;;3.27;1.17;;;;;;;;;;5042387;28;20055;-61
2023/04/03 14:00:39;;;;;;;5.45;1.35;;;;;;;;;;5043372;28;20040;-61
2023/04/03 14:03:27;;;;;;;3.77;1.20;;;;;;;;;;5039948;28;20124;-61
2023/04/03 14:05:53;;;;;;;4.07;1.30;;;;;;;;;;5040273;28;20051;-61
2023/04/03 14:08:20;;;;;;;2.83;0.87;;;;;;;;;;5038991;28;20052;-61
2023/04/03 14:10:47;;;;;;;3.53;1.43;;;;;;;;;;5042718;28;20048;-61
2023/04/03 14:13:16;;;;;;;3.27;1.40;;;;;;;;;;5040505;28;20056;-60
2023/04/03 14:15:43;;;;;;;3.30;1.40;;;;;;;;;;5044666;28;20041;-60
2023/04/03 14:18:12;;;;;;;4.03;1.23;;;;;;;;;;5040349;28;20768;-61
2023/04/03 14:20:38;;;;;;;4.50;1.70;;;;;;;;;;5040222;28;20426;-61
2023/04/03 14:23:04;;;;;;;2.83;1.00;;;;;;;;;;5041503;28;20041;-61
2023/04/03 14:25:30;;;;;;;5.03;1.20;;;;;;;;;;5048361;28;20052;-61
2023/04/03 14:27:57;;;;;;;3.53;1.40;;;;;;;;;;5040249;28;20515;-61
2023/04/03 14:30:23;;;;;;;4.17;1.20;;;;;;;;;;5041490;28;20103;-61
2023/04/03 14:32:49;;;;;;;5.37;1.23;;;;;;;;;;5040339;28;20184;-61
2023/04/03 14:35:17;;;;;;;4.13;1.30;;;;;;;;;;5040255;28;20048;-61
2023/04/03 14:37:43;;;;;;;3.10;1.40;;;;;;;;;;5041074;28;20103;-61
2023/04/03 14:40:13;;;;;;;4.63;1.30;;;;;;;;;;5041047;28;20486;-61
2023/04/03 14:42:39;;;;;;;3.13;1.30;;;;;;;;;;5042459;28;20041;-61
2023/04/03 14:45:07;;;;;;;4.23;1.37;;;;;;;;;;5040655;28;20045;-61
2023/04/03 14:47:34;;;;;;;4.47;1.30;;;;;;;;;;5042460;28;20034;-61
2023/04/03 14:50:01;;;;;;;2.00;1.00;;;;;;;;;;5040301;28;20048;-61